Time;durP1;ratioP1;P1;durP2;ratioP2;P2;SDS_P1;SDS_P2;PMS_P1;PMS_P2;Temp;Humidity;BMP_temperature;BMP_pressure;BME280_temperature;BME280_humidity;BME280_pressure;Samples;Min_cycle;Max_cycle;Signal;HPM_P1;HPM_P2
2022/05/16 00:01:07;;;;;;;3.50;2.50;;;24.20;48.80;;;;;;5094677;28;20431;-64
2022/05/16 00:03:33;;;;;;;3.28;2.63;;;24.20;48.70;;;;;;5094469;28;20378;-64
2022/05/16 00:05:59;;;;;;;3.50;2.40;;;24.20;48.70;;;;;;5094447;28;20386;-64
2022/05/16 00:08:25;;;;;;;3.42;2.42;;;24.20;48.80;;;;;;5094246;28;20385;-64
2022/05/16 00:10:51;;;;;;;4.30;2.38;;;24.20;48.70;;;;;;5094065;28;20475;-64
2022/05/16 00:13:16;;;;;;;3.27;2.40;;;24.20;49.30;;;;;;5094381;28;20378;-63
2022/05/16 00:15:42;;;;;;;3.90;2.55;;;24.20;48.80;;;;;;5094367;28;20391;-64
2022/05/16 00:18:08;;;;;;;3.00;2.47;;;24.20;48.80;;;;;;5094271;28;20382;-64
2022/05/16 00:20:33;;;;;;;4.10;2.60;;;24.20;48.80;;;;;;5093686;28;20863;-64
2022/05/16 00:22:59;;;;;;;3.65;2.60;;;24.20;48.80;;;;;;5094234;28;20382;-64
2022/05/16 00:25:25;;;;;;;3.42;2.60;;;24.20;48.80;;;;;;5094140;28;20414;-64
2022/05/16 00:27:51;;;;;;;3.80;2.38;;;24.20;48.70;;;;;;5093961;28;20787;-64
2022/05/16 00:30:18;;;;;;;3.70;2.10;;;24.20;48.80;;;;;;5092439;28;20862;-64
2022/05/16 00:32:45;;;;;;;3.13;2.40;;;24.10;48.80;;;;;;5093536;28;20401;-64
2022/05/16 00:35:12;;;;;;;3.60;2.38;;;24.10;48.70;;;;;;5093975;28;20389;-64
2022/05/16 00:37:38;;;;;;;3.45;2.50;;;24.20;48.90;;;;;;5092503;28;20401;-64
2022/05/16 00:40:06;;;;;;;3.70;2.60;;;24.10;48.70;;;;;;5093809;28;20395;-64
2022/05/16 00:42:31;;;;;;;3.15;2.47;;;24.10;48.80;;;;;;5092164;28;20422;-64
2022/05/16 00:44:57;;;;;;;3.35;2.70;;;24.10;48.80;;;;;;5093717;28;20470;-64
2022/05/16 00:47:23;;;;;;;3.23;2.50;;;24.10;48.80;;;;;;5093686;28;20394;-64
2022/05/16 00:49:51;;;;;;;2.63;2.40;;;24.10;48.80;;;;;;5093479;28;20386;-64
2022/05/16 00:52:21;;;;;;;3.05;2.50;;;24.10;48.70;;;;;;5093585;28;20411;-64
2022/05/16 00:55:12;;;;;;;4.53;2.60;;;24.10;48.80;;;;;;5093227;28;20382;-64
2022/05/16 00:57:43;;;;;;;3.53;2.38;;;24.10;48.80;;;;;;5093360;28;20865;-64
2022/05/16 01:00:19;;;;;;;3.05;2.30;;;24.10;48.80;;;;;;5093502;28;20425;-64
2022/05/16 01:05:36;;;;;;;2.60;2.30;;;24.00;48.70;;;;;;5093406;28;20516;-64
2022/05/16 01:08:05;;;;;;;4.10;2.60;;;24.00;48.80;;;;;;5093279;28;20481;-64
2022/05/16 01:10:32;;;;;;;3.63;2.47;;;24.00;48.80;;;;;;5092977;28;20406;-64
2022/05/16 01:12:58;;;;;;;3.72;2.40;;;24.00;48.80;;;;;;5093234;28;20428;-64
2022/05/16 01:15:57;;;;;;;3.50;2.50;;;24.00;48.70;;;;;;5093251;28;20402;-64
2022/05/16 01:18:24;;;;;;;3.25;2.50;;;24.00;48.80;;;;;;5049040;28;20398;-64
2022/05/16 01:21:01;;;;;;;3.37;2.53;;;24.00;48.70;;;;;;5092740;28;20468;-64
2022/05/16 01:23:32;;;;;;;3.33;2.60;;;24.00;48.80;;;;;;5092983;28;20878;-64
2022/05/16 01:25:59;;;;;;;3.83;2.60;;;24.00;48.70;;;;;;5092966;28;20378;-64
2022/05/16 01:28:25;;;;;;;3.22;2.50;;;24.00;48.80;;;;;;5092792;28;20393;-64
2022/05/16 01:30:54;;;;;;;3.77;2.70;;;24.00;48.80;;;;;;5092453;28;20402;-64
2022/05/16 01:33:22;;;;;;;3.28;2.72;;;24.00;48.80;;;;;;5092713;28;20394;-64
2022/05/16 01:35:48;;;;;;;3.20;2.60;;;24.00;48.80;;;;;;5092661;28;20390;-64
2022/05/16 01:38:26;;;;;;;5.07;2.78;;;24.00;48.80;;;;;;5092924;28;20382;-64
2022/05/16 01:40:52;;;;;;;2.90;2.60;;;24.00;48.80;;;;;;5092377;28;20457;-64
2022/05/16 01:43:20;;;;;;;2.83;2.50;;;24.00;48.80;;;;;;5092709;28;20378;-64
2022/05/16 01:45:46;;;;;;;3.75;2.72;;;24.00;48.90;;;;;;5092493;28;20378;-64
2022/05/16 01:48:13;;;;;;;3.42;2.63;;;24.00;48.80;;;;;;5092623;28;20385;-64
2022/05/16 01:50:40;;;;;;;3.00;2.50;;;24.00;48.80;;;;;;5089555;28;20500;-64
2022/05/16 01:53:06;;;;;;;3.05;2.58;;;24.00;48.80;;;;;;5092675;28;20477;-63
2022/05/16 01:55:32;;;;;;;3.40;2.50;;;23.90;48.80;;;;;;5092409;28;20381;-64
2022/05/16 01:57:58;;;;;;;3.53;2.40;;;23.90;48.80;;;;;;5092405;28;20389;-64
2022/05/16 02:00:24;;;;;;;2.97;2.33;;;23.90;48.80;;;;;;5092328;28;20862;-64
2022/05/16 02:02:49;;;;;;;2.85;2.40;;;23.90;48.70;;;;;;5091787;28;20386;-64
2022/05/16 02:05:18;;;;;;;3.10;2.50;;;23.90;48.80;;;;;;5092241;28;20850;-64
2022/05/16 02:07:45;;;;;;;3.77;2.60;;;23.90;48.70;;;;;;5092108;28;20413;-64
2022/05/16 02:10:13;;;;;;;3.17;2.42;;;23.90;48.70;;;;;;5092071;28;20394;-63
2022/05/16 02:12:38;;;;;;;3.15;2.50;;;23.90;48.70;;;;;;5091583;28;20390;-64
2022/05/16 02:15:07;;;;;;;2.75;2.40;;;23.90;48.70;;;;;;5090905;28;20735;-64
2022/05/16 02:17:33;;;;;;;3.38;2.60;;;23.90;48.80;;;;;;5091732;28;20397;-64
2022/05/16 02:19:59;;;;;;;2.97;2.70;;;23.90;48.70;;;;;;5091511;28;20418;-64
2022/05/16 02:25:10;;;;;;;3.17;2.63;;;23.90;48.80;;;;;;5092203;28;20389;-64
2022/05/16 02:27:36;;;;;;;2.93;2.60;;;23.90;48.80;;;;;;5091779;28;20382;-64
2022/05/16 02:30:04;;;;;;;3.13;2.60;;;23.90;48.70;;;;;;5091822;28;20390;-64
2022/05/16 02:32:30;;;;;;;3.00;2.70;;;23.90;48.80;;;;;;5091341;28;20406;-64
2022/05/16 02:34:55;;;;;;;3.10;2.80;;;23.80;48.70;;;;;;5090922;28;20798;-64
2022/05/16 02:37:21;;;;;;;5.23;2.40;;;23.80;48.80;;;;;;5090228;28;20390;-64
2022/05/16 02:39:47;;;;;;;3.13;2.50;;;23.80;48.70;;;;;;5091639;28;20424;-64
2022/05/16 02:42:14;;;;;;;2.97;2.55;;;23.80;48.70;;;;;;5091696;28;20417;-64
2022/05/16 02:44:43;;;;;;;3.27;2.43;;;23.80;48.80;;;;;;5091190;28;20472;-64
2022/05/16 02:47:18;;;;;;;3.92;2.78;;;23.80;48.80;;;;;;5091687;28;20390;-64
2022/05/16 02:49:44;;;;;;;3.10;2.47;;;23.80;48.70;;;;;;5091021;28;20882;-64
2022/05/16 02:52:10;;;;;;;3.40;2.53;;;23.80;48.70;;;;;;5090931;28;20800;-64
2022/05/16 02:54:36;;;;;;;2.95;2.55;;;23.80;48.70;;;;;;5091281;28;20858;-64
2022/05/16 02:57:03;;;;;;;3.17;2.60;;;23.80;48.70;;;;;;5091300;28;20393;-64
2022/05/16 02:59:32;;;;;;;3.10;2.55;;;23.80;48.70;;;;;;5091546;28;20495;-64
2022/05/16 03:02:03;;;;;;;3.40;2.70;;;23.80;48.70;;;;;;5091365;28;20407;-64
2022/05/16 03:04:29;;;;;;;3.58;2.63;;;23.80;48.80;;;;;;5090978;28;20382;-64
2022/05/16 03:06:55;;;;;;;6.63;2.67;;;23.80;48.70;;;;;;5089353;28;20426;-64
2022/05/16 03:09:22;;;;;;;5.23;2.67;;;23.80;49.20;;;;;;5091225;28;20409;-64
2022/05/16 03:11:48;;;;;;;4.15;2.45;;;23.80;49.50;;;;;;5089775;28;20913;-64
2022/05/16 03:14:14;;;;;;;5.22;2.63;;;23.80;50.10;;;;;;5091650;28;20417;-64
2022/05/16 03:16:40;;;;;;;6.90;2.87;;;23.80;49.90;;;;;;5090851;28;20418;-64
2022/05/16 03:19:06;;;;;;;6.10;2.88;;;23.80;50.10;;;;;;5091087;28;20476;-64
2022/05/16 03:21:32;;;;;;;6.22;3.20;;;23.80;52.30;;;;;;5090532;28;20398;-64
2022/05/16 03:23:58;;;;;;;8.50;3.10;;;23.90;52.00;;;;;;5089613;28;20773;-63
2022/05/16 03:26:25;;;;;;;5.63;3.10;;;23.90;51.80;;;;;;5091376;28;20393;-63
2022/05/16 03:28:50;;;;;;;5.38;2.90;;;23.90;51.70;;;;;;5090706;28;20414;-63
2022/05/16 03:31:16;;;;;;;10.55;3.05;;;23.90;51.90;;;;;;5089868;28;20830;-64
2022/05/16 03:33:42;;;;;;;7.55;3.10;;;24.00;52.20;;;;;;5093197;28;20742;-63
2022/05/16 03:36:08;;;;;;;8.52;3.30;;;24.00;52.00;;;;;;5095182;28;20383;-63
2022/05/16 03:41:18;;;;;;;5.18;2.97;;;24.00;52.40;;;;;;5095007;28;20389;-63
2022/05/16 03:43:44;;;;;;;6.40;3.10;;;24.00;52.30;;;;;;5094972;28;20382;-63
2022/05/16 03:46:10;;;;;;;5.07;2.97;;;24.00;52.30;;;;;;5094812;28;20386;-63
2022/05/16 03:48:36;;;;;;;6.00;2.85;;;24.00;52.00;;;;;;5094557;28;20388;-63
2022/05/16 03:51:03;;;;;;;8.00;2.72;;;24.00;50.70;;;;;;5093886;28;20501;-64
2022/05/16 03:53:29;;;;;;;6.93;2.73;;;24.00;51.40;;;;;;5094544;28;20553;-64
2022/05/16 03:55:55;;;;;;;3.83;2.72;;;24.00;50.10;;;;;;5094651;28;20407;-64
2022/05/16 03:58:21;;;;;;;4.18;2.60;;;23.90;49.80;;;;;;5094646;28;20870;-64
2022/05/16 04:00:47;;;;;;;3.00;2.57;;;23.90;49.90;;;;;;5094002;28;20886;-64
2022/05/16 04:03:14;;;;;;;6.68;3.13;;;23.90;50.20;;;;;;5094356;28;20385;-64
2022/05/16 04:05:39;;;;;;;10.27;3.30;;;23.90;50.50;;;;;;5094431;28;20405;-64
2022/05/16 04:08:06;;;;;;;5.70;3.13;;;23.90;50.00;;;;;;5094661;28;20861;-64
2022/05/16 04:10:52;;;;;;;9.23;3.17;;;23.90;50.20;;;;;;5094066;28;20405;-64
2022/05/16 04:13:17;;;;;;;6.55;3.08;;;23.90;50.70;;;;;;5094365;28;20398;-65
2022/05/16 04:15:43;;;;;;;6.00;3.30;;;23.90;50.30;;;;;;5094186;28;20378;-64
2022/05/16 04:18:08;;;;;;;7.75;3.10;;;23.90;50.50;;;;;;5094307;28;20382;-64
2022/05/16 04:20:34;;;;;;;6.47;3.78;;;23.90;50.20;;;;;;5093927;28;20878;-64
2022/05/16 04:23:00;;;;;;;8.80;3.43;;;23.90;50.00;;;;;;5094268;28;20393;-65
2022/05/16 04:25:25;;;;;;;8.40;3.70;;;23.90;50.00;;;;;;5094173;28;20884;-65
2022/05/16 04:27:51;;;;;;;6.43;3.40;;;23.90;49.90;;;;;;5092628;28;20390;-65
2022/05/16 04:30:17;;;;;;;10.13;3.90;;;23.80;49.90;;;;;;5094215;28;20382;-65
2022/05/16 04:32:42;;;;;;;10.27;4.10;;;23.80;49.80;;;;;;5101926;28;20409;-64
2022/05/16 04:35:09;;;;;;;6.47;3.80;;;23.80;49.70;;;;;;5104392;28;20818;-64
2022/05/16 04:37:34;;;;;;;7.38;3.97;;;23.80;49.60;;;;;;5097797;28;20873;-64
2022/05/16 04:40:04;;;;;;;7.80;4.10;;;23.80;49.60;;;;;;5093705;28;20386;-64
2022/05/16 04:42:42;;;;;;;9.63;4.40;;;23.80;49.50;;;;;;5094090;28;20378;-65
2022/05/16 04:45:09;;;;;;;8.77;4.10;;;23.80;49.30;;;;;;5073586;28;20394;-64
2022/05/16 04:47:35;;;;;;;8.35;4.30;;;23.80;49.50;;;;;;5108910;28;20384;-63
2022/05/16 04:50:01;;;;;;;7.35;4.90;;;23.80;50.00;;;;;;5106309;28;20393;-63
2022/05/16 04:52:28;;;;;;;9.07;5.07;;;23.80;50.00;;;;;;5102071;28;20414;-63
2022/05/16 04:54:54;;;;;;;7.40;4.80;;;23.80;50.10;;;;;;5104031;28;20382;-64
2022/05/16 04:57:20;;;;;;;7.90;4.60;;;23.80;51.30;;;;;;5114606;28;20380;-64
2022/05/16 04:59:49;;;;;;;7.65;5.00;;;23.80;51.10;;;;;;5113945;28;20376;-64
2022/05/16 05:02:16;;;;;;;8.55;5.00;;;23.80;51.00;;;;;;5113810;28;20869;-64
2022/05/16 05:04:42;;;;;;;7.90;4.70;;;23.80;50.30;;;;;;5113571;28;20848;-65
2022/05/16 05:07:08;;;;;;;8.23;4.63;;;23.80;50.50;;;;;;5114250;28;20392;-65
2022/05/16 05:14:31;;;;;;;8.38;5.03;;;23.80;50.50;;;;;;5113694;28;20410;-65
2022/05/16 05:15:07;;;;;;;7.85;5.05;;;23.80;50.90;;;;;;5113553;28;20392;-65
2022/05/16 05:17:32;;;;;;;7.90;4.85;;;23.80;51.30;;;;;;5113519;28;20385;-65
2022/05/16 05:19:58;;;;;;;8.23;5.00;;;23.80;50.70;;;;;;5113349;28;20747;-65
2022/05/16 05:22:24;;;;;;;9.75;5.13;;;23.80;50.90;;;;;;5113969;28;20902;-63
2022/05/16 05:24:49;;;;;;;9.03;4.80;;;23.80;50.80;;;;;;5113252;28;20383;-64
2022/05/16 05:27:15;;;;;;;9.25;4.80;;;23.80;50.70;;;;;;5113876;28;20416;-63
2022/05/16 05:29:40;;;;;;;9.63;5.20;;;23.80;52.20;;;;;;5114126;28;20385;-64
2022/05/16 05:32:07;;;;;;;7.80;4.90;;;23.80;52.20;;;;;;5113386;28;20419;-64
2022/05/16 05:34:34;;;;;;;6.77;5.07;;;23.80;52.50;;;;;;5113855;28;20387;-64
2022/05/16 05:37:00;;;;;;;8.40;5.05;;;23.70;52.90;;;;;;5112959;28;20467;-64
2022/05/16 05:39:26;;;;;;;6.37;4.80;;;23.70;52.30;;;;;;5105429;28;20470;-64
2022/05/16 05:41:52;;;;;;;7.55;4.50;;;23.70;52.30;;;;;;5092206;28;20469;-64
2022/05/16 05:44:18;;;;;;;9.48;4.50;;;23.70;51.50;;;;;;5092331;28;20876;-64
2022/05/16 05:46:43;;;;;;;7.43;4.47;;;23.70;51.60;;;;;;5092143;28;20382;-64
2022/05/16 05:49:10;;;;;;;7.30;4.63;;;23.70;51.40;;;;;;5090757;28;20870;-64
2022/05/16 05:51:35;;;;;;;8.80;4.15;;;23.70;51.40;;;;;;5092034;28;20426;-64
2022/05/16 05:54:01;;;;;;;6.37;4.10;;;23.70;51.20;;;;;;5092219;28;20766;-64
2022/05/16 05:56:28;;;;;;;6.93;4.40;;;23.70;51.30;;;;;;5091472;28;20408;-64
2022/05/16 05:58:54;;;;;;;6.20;4.13;;;23.70;51.00;;;;;;5091576;28;20382;-64
2022/05/16 06:01:21;;;;;;;6.53;4.05;;;23.60;51.50;;;;;;5092076;28;20512;-64
2022/05/16 06:03:46;;;;;;;5.13;4.05;;;23.60;51.20;;;;;;5091803;28;20440;-64
2022/05/16 06:06:12;;;;;;;6.70;4.03;;;23.60;51.20;;;;;;5092038;28;20445;-64
2022/05/16 06:08:38;;;;;;;6.28;4.22;;;23.60;51.20;;;;;;5091922;28;20393;-64
2022/05/16 06:11:03;;;;;;;6.43;4.20;;;23.60;51.30;;;;;;5091355;28;20761;-64
2022/05/16 06:13:29;;;;;;;5.17;4.00;;;23.60;51.20;;;;;;5091846;28;20405;-64
2022/05/16 06:15:55;;;;;;;5.57;4.03;;;23.70;51.30;;;;;;5091824;28;20397;-64
2022/05/16 06:18:20;;;;;;;5.03;4.33;;;23.70;51.20;;;;;;5092121;28;20398;-64
2022/05/16 06:20:46;;;;;;;5.40;3.85;;;23.70;51.20;;;;;;5091454;28;20386;-64
2022/05/16 06:23:12;;;;;;;4.57;3.80;;;23.70;51.30;;;;;;5091448;28;21276;-64
2022/05/16 06:25:42;;;;;;;5.72;3.97;;;23.70;51.00;;;;;;5091551;28;20378;-64
2022/05/16 06:28:15;;;;;;;6.63;4.13;;;23.70;50.80;;;;;;5091695;28;20804;-64
2022/05/16 06:30:43;;;;;;;5.50;4.07;;;23.70;51.00;;;;;;5091490;28;20463;-64
2022/05/16 06:33:10;;;;;;;4.05;3.60;;;23.70;50.70;;;;;;5090047;28;20472;-65
2022/05/16 06:35:36;;;;;;;4.90;3.80;;;23.70;50.80;;;;;;5089285;28;20392;-64
2022/05/16 06:38:14;;;;;;;5.25;3.60;;;23.70;50.80;;;;;;5090307;28;20387;-64
2022/05/16 06:40:43;;;;;;;5.80;4.00;;;23.70;50.80;;;;;;5091554;28;20393;-64
2022/05/16 06:43:10;;;;;;;5.05;4.00;;;23.70;50.90;;;;;;5091634;28;20464;-64
2022/05/16 06:45:36;;;;;;;4.35;3.50;;;23.70;50.80;;;;;;5091653;28;20862;-64
2022/05/16 06:48:03;;;;;;;4.80;3.60;;;23.70;50.80;;;;;;5090176;28;20396;-64
2022/05/16 06:50:29;;;;;;;4.33;3.60;;;23.70;50.80;;;;;;5091403;28;20899;-64
2022/05/16 06:52:55;;;;;;;5.32;3.58;;;23.70;50.90;;;;;;5090922;28;20394;-64
2022/05/16 06:55:21;;;;;;;4.23;3.70;;;23.70;50.80;;;;;;5091405;28;20444;-64
2022/05/16 06:57:46;;;;;;;4.40;3.63;;;23.70;50.80;;;;;;5089791;28;20394;-64
2022/05/16 07:00:12;;;;;;;4.20;3.67;;;23.70;50.80;;;;;;5091304;28;20423;-64
2022/05/16 07:02:39;;;;;;;5.03;3.75;;;23.70;50.90;;;;;;5090071;28;20390;-64
2022/05/16 07:05:05;;;;;;;4.63;3.60;;;23.60;51.10;;;;;;5091235;28;20726;-64
2022/05/16 07:07:30;;;;;;;5.45;4.00;;;23.70;50.90;;;;;;5092834;28;20394;-64
2022/05/16 07:09:56;;;;;;;4.70;3.60;;;23.70;51.20;;;;;;5095518;28;20401;-64
2022/05/16 07:12:22;;;;;;;5.60;3.37;;;23.70;51.00;;;;;;5096287;28;20410;-64
2022/05/16 07:14:48;;;;;;;5.93;3.50;;;23.70;51.10;;;;;;5094903;28;20466;-64
2022/05/16 07:17:14;;;;;;;4.70;3.50;;;23.70;51.20;;;;;;5094862;28;20483;-64
2022/05/16 07:19:40;;;;;;;4.60;3.15;;;23.70;50.80;;;;;;5095068;28;20381;-64
2022/05/16 07:22:15;;;;;;;5.10;3.80;;;23.70;50.80;;;;;;5095113;28;20378;-64
2022/05/16 07:24:41;;;;;;;4.80;3.60;;;23.70;50.90;;;;;;5094863;28;20445;-64
2022/05/16 07:29:52;;;;;;;5.43;3.60;;;23.70;51.00;;;;;;5094990;28;20384;-64
2022/05/16 07:32:18;;;;;;;4.40;3.40;;;23.70;50.70;;;;;;5094809;28;20421;-64
2022/05/16 07:34:44;;;;;;;4.25;3.40;;;23.70;50.90;;;;;;5094684;28;20418;-64
2022/05/16 07:37:10;;;;;;;4.30;3.22;;;23.80;50.90;;;;;;5094715;28;20417;-64
2022/05/16 07:39:36;;;;;;;4.30;3.40;;;23.70;50.80;;;;;;5094827;28;20378;-64
2022/05/16 07:42:04;;;;;;;4.10;3.50;;;23.70;50.90;;;;;;5094726;28;20758;-64
2022/05/16 07:44:30;;;;;;;6.22;3.38;;;23.70;50.90;;;;;;5095216;28;20389;-64
2022/05/16 07:46:55;;;;;;;4.38;3.55;;;23.70;50.80;;;;;;5094353;28;20378;-64
2022/05/16 07:49:22;;;;;;;4.67;3.33;;;23.70;50.80;;;;;;5094832;28;20493;-64
2022/05/16 07:51:48;;;;;;;3.92;3.53;;;23.70;50.80;;;;;;5094427;28;20421;-64
2022/05/16 07:54:14;;;;;;;5.55;3.55;;;23.80;50.70;;;;;;5094725;28;20370;-64
2022/05/16 07:56:39;;;;;;;3.75;3.35;;;23.70;50.50;;;;;;5094527;28;20824;-64
2022/05/16 07:59:06;;;;;;;4.50;3.50;;;23.70;50.40;;;;;;5094225;28;20473;-64
2022/05/16 08:01:32;;;;;;;5.20;3.60;;;23.70;50.40;;;;;;5094475;28;20397;-64
2022/05/16 08:03:57;;;;;;;7.43;3.50;;;23.80;50.70;;;;;;5076278;28;20390;-64
2022/05/16 08:06:27;;;;;;;6.37;3.53;;;23.70;50.70;;;;;;5094492;28;20382;-64
2022/05/16 08:11:38;;;;;;;5.80;3.80;;;23.70;50.60;;;;;;5094396;28;20467;-64
2022/05/16 08:14:04;;;;;;;6.07;3.50;;;23.70;50.70;;;;;;5094383;28;20780;-64
2022/05/16 08:16:30;;;;;;;4.80;3.50;;;23.70;50.80;;;;;;5094267;28;20418;-64
2022/05/16 08:18:56;;;;;;;5.68;3.40;;;23.70;50.80;;;;;;5092895;28;20378;-64
2022/05/16 08:21:21;;;;;;;4.73;3.60;;;23.70;50.90;;;;;;5094066;28;20382;-64
2022/05/16 08:23:47;;;;;;;4.03;3.50;;;23.70;50.70;;;;;;5094164;28;20419;-64
2022/05/16 08:26:13;;;;;;;5.22;3.42;;;23.70;50.80;;;;;;5094133;28;20743;-64
2022/05/16 08:28:39;;;;;;;6.07;3.40;;;23.70;50.70;;;;;;5094106;28;20861;-64
2022/05/16 08:31:05;;;;;;;4.38;3.20;;;23.70;50.90;;;;;;5093498;28;20414;-64
2022/05/16 08:33:33;;;;;;;6.10;3.47;;;23.70;50.90;;;;;;5093811;28;20386;-64
2022/05/16 08:41:54;;;;;;;4.82;3.63;;;23.70;50.80;;;;;;5093928;28;20893;-64
2022/05/16 08:44:48;;;;;;;4.95;3.50;;;23.70;51.00;;;;;;5093882;28;20402;-64
2022/05/16 08:47:43;;;;;;;4.00;3.60;;;23.70;51.10;;;;;;5093585;28;20374;-63
2022/05/16 08:50:14;;;;;;;5.55;3.70;;;23.70;51.00;;;;;;5093589;28;20862;-64
2022/05/16 08:52:56;;;;;;;5.57;3.70;;;23.70;51.20;;;;;;5093596;28;20452;-64
2022/05/16 08:55:29;;;;;;;4.00;3.53;;;23.70;51.20;;;;;;5093354;28;20390;-64
2022/05/16 08:58:33;;;;;;;4.32;3.70;;;23.70;51.20;;;;;;5093518;28;20836;-64
2022/05/16 09:01:08;;;;;;;4.13;3.50;;;23.70;51.00;;;;;;5092985;28;20389;-64
2022/05/16 09:04:03;;;;;;;5.03;3.63;;;23.80;50.90;;;;;;5093225;28;20401;-64
2022/05/16 09:06:56;;;;;;;4.65;3.60;;;23.80;51.00;;;;;;5093428;28;20379;-64
2022/05/16 09:09:27;;;;;;;3.63;3.30;;;23.80;50.90;;;;;;5093092;28;20708;-64
2022/05/16 09:12:27;;;;;;;4.32;3.75;;;23.80;50.90;;;;;;5093126;28;20418;-64
2022/05/16 09:15:07;;;;;;;3.90;3.50;;;23.80;50.90;;;;;;5092891;28;20796;-64
2022/05/16 09:17:55;;;;;;;4.17;3.50;;;23.80;50.80;;;;;;5093216;28;20452;-64
2022/05/16 09:20:20;;;;;;;4.20;3.47;;;23.80;51.00;;;;;;5093061;28;20388;-64
2022/05/16 09:23:05;;;;;;;4.00;3.20;;;23.80;50.90;;;;;;5092937;28;20390;-64
2022/05/16 09:25:43;;;;;;;3.95;3.50;;;23.80;50.90;;;;;;5092957;28;20400;-64
2022/05/16 09:30:59;;;;;;;4.35;3.70;;;23.90;50.80;;;;;;5091467;28;20795;-64
2022/05/16 09:33:29;;;;;;;4.43;3.53;;;23.90;51.10;;;;;;5092853;28;20382;-64
2022/05/16 09:36:07;;;;;;;5.38;3.90;;;23.90;51.10;;;;;;5092750;28;20733;-64
2022/05/16 09:38:33;;;;;;;5.25;3.88;;;23.90;51.20;;;;;;5092740;28;20382;-64
2022/05/16 09:40:59;;;;;;;4.85;3.70;;;23.90;51.00;;;;;;5092358;28;20473;-64
2022/05/16 09:43:30;;;;;;;4.53;3.80;;;23.90;51.00;;;;;;5092476;28;20477;-64
2022/05/16 09:46:15;;;;;;;4.25;3.67;;;23.90;51.00;;;;;;5092567;28;20371;-64
2022/05/16 09:48:41;;;;;;;4.88;3.75;;;23.90;51.00;;;;;;5074809;28;20406;-64
2022/05/16 09:51:09;;;;;;;4.50;3.20;;;23.90;51.00;;;;;;5081483;28;20530;-64
2022/05/16 09:53:43;;;;;;;4.28;3.60;;;23.90;51.00;;;;;;5092367;28;20854;-64
2022/05/16 09:56:25;;;;;;;4.27;3.77;;;23.90;51.00;;;;;;5092397;28;20489;-64
2022/05/16 09:58:54;;;;;;;5.30;3.42;;;24.00;50.90;;;;;;5092287;28;20414;-64
2022/05/16 10:01:31;;;;;;;4.35;3.67;;;24.00;50.80;;;;;;5092164;28;20405;-64
2022/05/16 10:04:15;;;;;;;4.25;3.42;;;24.00;51.10;;;;;;5090923;28;20386;-64
2022/05/16 10:06:44;;;;;;;4.03;3.63;;;24.00;51.00;;;;;;5092176;28;20400;-64
2022/05/16 10:09:15;;;;;;;4.37;3.83;;;24.00;51.00;;;;;;5091749;28;20416;-64
2022/05/16 10:11:50;;;;;;;4.28;3.63;;;24.00;51.20;;;;;;5091949;28;20453;-64
2022/05/16 10:14:15;;;;;;;4.40;3.60;;;24.00;51.10;;;;;;5092146;28;20386;-64
2022/05/16 10:16:45;;;;;;;5.05;3.92;;;24.00;50.90;;;;;;5092045;28;20435;-64
2022/05/16 10:19:15;;;;;;;4.63;3.60;;;24.00;50.90;;;;;;5091611;28;20443;-64
2022/05/16 10:22:01;;;;;;;4.72;3.70;;;24.00;50.70;;;;;;5091905;28;20367;-64
2022/05/16 10:24:31;;;;;;;4.38;3.83;;;23.90;50.90;;;;;;5091973;28;20422;-64
2022/05/16 10:27:05;;;;;;;4.47;3.75;;;23.90;51.00;;;;;;5091731;28;20382;-64
2022/05/16 10:29:38;;;;;;;3.97;3.47;;;23.90;50.90;;;;;;5091852;28;20481;-64
2022/05/16 10:35:00;;;;;;;4.10;3.30;;;23.90;50.80;;;;;;5091578;28;20384;-64
2022/05/16 10:37:27;;;;;;;4.47;3.65;;;23.90;50.90;;;;;;5091445;28;20782;-64
2022/05/16 10:40:10;;;;;;;4.05;3.50;;;23.90;50.80;;;;;;5091641;28;20378;-64
2022/05/16 10:43:02;;;;;;;4.47;3.53;;;23.90;50.80;;;;;;5091275;28;20424;-64
2022/05/16 10:45:31;;;;;;;4.60;3.55;;;23.90;50.70;;;;;;5091689;28;20382;-64
2022/05/16 10:48:06;;;;;;;4.93;3.78;;;23.90;51.00;;;;;;5091544;28;20949;-64
2022/05/16 10:50:41;;;;;;;4.10;3.47;;;23.90;51.00;;;;;;5090082;28;20425;-64
2022/05/16 10:53:28;;;;;;;3.75;3.35;;;23.90;51.10;;;;;;5090398;28;20410;-64
2022/05/16 10:56:00;;;;;;;4.23;3.40;;;23.90;51.00;;;;;;5091520;28;20796;-64
2022/05/16 10:58:34;;;;;;;4.65;3.80;;;23.90;51.10;;;;;;5090247;28;20398;-64
2022/05/16 11:01:08;;;;;;;4.00;3.57;;;23.90;51.50;;;;;;5091178;28;20378;-64
2022/05/16 11:03:39;;;;;;;4.10;3.70;;;24.00;51.10;;;;;;5090053;28;20394;-64
2022/05/16 11:06:23;;;;;;;4.20;3.80;;;24.00;51.10;;;;;;5091406;28;20455;-64
2022/05/16 11:09:25;;;;;;;3.95;3.55;;;24.00;51.20;;;;;;5091341;28;20415;-64
2022/05/16 11:12:25;;;;;;;4.30;3.43;;;24.00;51.10;;;;;;5088086;28;20429;-64
2022/05/16 11:15:02;;;;;;;3.90;3.50;;;24.00;51.30;;;;;;5091326;28;20397;-64
2022/05/16 11:17:39;;;;;;;3.83;3.40;;;24.00;51.00;;;;;;5089785;28;20394;-64
2022/05/16 11:20:37;;;;;;;4.03;3.60;;;24.00;51.20;;;;;;5091389;28;20415;-64
2022/05/16 11:23:28;;;;;;;4.05;3.30;;;24.00;51.40;;;;;;5090564;28;20393;-64
2022/05/16 11:26:07;;;;;;;3.88;3.47;;;24.00;51.00;;;;;;5091280;28;20382;-64
2022/05/16 11:29:17;;;;;;;3.88;3.58;;;24.00;51.10;;;;;;5089811;28;20421;-64
2022/05/16 11:31:36;;;;;;;3.87;3.47;;;24.00;51.00;;;;;;5091147;28;20427;-64
2022/05/16 11:34:02;;;;;;;3.83;3.30;;;24.00;50.80;;;;;;5091144;28;20440;-64
2022/05/16 11:36:45;;;;;;;3.77;3.43;;;24.00;50.90;;;;;;5091151;28;20452;-64
2022/05/16 11:39:26;;;;;;;3.70;3.28;;;24.00;51.00;;;;;;5090682;28;20378;-64
2022/05/16 11:42:21;;;;;;;4.03;3.33;;;24.00;50.80;;;;;;5091088;28;20379;-64
2022/05/16 11:45:02;;;;;;;3.88;3.25;;;24.00;51.10;;;;;;5091010;28;20405;-64
2022/05/16 11:47:36;;;;;;;3.73;3.23;;;24.00;51.10;;;;;;5090848;28;20386;-64
2022/05/16 11:50:08;;;;;;;3.65;3.22;;;24.00;51.10;;;;;;5090758;28;20390;-64
2022/05/16 11:52:53;;;;;;;3.60;3.10;;;24.00;51.00;;;;;;5090881;28;20755;-64
2022/05/16 12:01:04;;;;;;;6.90;3.70;;;24.00;51.10;;;;;;5085485;28;20417;-65
2022/05/16 12:03:35;;;;;;;4.93;3.13;;;24.00;51.00;;;;;;5073173;28;20814;-64
2022/05/16 12:06:25;;;;;;;4.45;3.20;;;24.00;51.10;;;;;;5074117;28;20412;-64
2022/05/16 12:09:17;;;;;;;7.20;3.47;;;24.00;51.10;;;;;;5075129;28;20391;-64
2022/05/16 12:12:04;;;;;;;4.82;3.13;;;24.00;51.20;;;;;;5053287;28;20415;-64
2022/05/16 12:14:38;;;;;;;6.60;3.20;;;24.00;51.20;;;;;;5072243;28;20409;-64
2022/05/16 12:17:07;;;;;;;4.13;2.92;;;24.00;51.10;;;;;;5072553;28;20380;-64
2022/05/16 12:19:37;;;;;;;3.95;3.20;;;24.00;51.00;;;;;;5073576;28;20401;-64
2022/05/16 12:22:18;;;;;;;5.97;3.00;;;24.00;51.00;;;;;;5072629;28;20392;-64
2022/05/16 12:24:53;;;;;;;4.90;3.10;;;24.00;51.20;;;;;;5071263;28;20387;-64
2022/05/16 12:27:35;;;;;;;4.53;3.10;;;24.00;51.10;;;;;;5069874;28;20380;-64
2022/05/16 12:30:06;;;;;;;3.50;3.00;;;24.00;51.00;;;;;;5070734;28;20384;-64
2022/05/16 12:32:33;;;;;;;4.35;3.00;;;24.00;51.00;;;;;;5072170;28;20753;-64
2022/05/16 12:35:11;;;;;;;3.55;3.00;;;24.00;51.00;;;;;;5072532;28;20943;-64
2022/05/16 12:37:38;;;;;;;3.40;2.90;;;24.00;51.00;;;;;;5070099;28;20548;-64
2022/05/16 12:40:44;;;;;;;4.35;3.05;;;24.00;51.00;;;;;;5072383;28;20894;-64
2022/05/16 12:43:47;;;;;;;4.25;3.00;;;24.00;51.10;;;;;;5071092;28;20424;-64
2022/05/16 12:46:16;;;;;;;3.80;2.90;;;24.00;51.00;;;;;;5072027;28;20392;-64
2022/05/16 12:49:11;;;;;;;3.28;2.97;;;24.00;51.00;;;;;;5071899;28;20736;-64
2022/05/16 12:51:45;;;;;;;3.13;2.72;;;24.00;50.90;;;;;;5084917;28;20421;-64
2022/05/16 12:54:20;;;;;;;2.80;2.55;;;24.00;50.90;;;;;;5092169;28;20886;-64
2022/05/16 12:56:45;;;;;;;5.07;3.00;;;24.00;50.90;;;;;;5092231;28;20378;-67
2022/05/16 12:59:24;;;;;;;2.88;2.55;;;24.10;51.00;;;;;;5091603;28;20390;-64
2022/05/16 13:01:49;;;;;;;3.55;3.03;;;24.10;51.00;;;;;;5092175;28;20791;-64
2022/05/16 13:04:41;;;;;;;3.25;2.65;;;24.10;51.00;;;;;;5092053;28;20519;-64
2022/05/16 13:07:16;;;;;;;3.25;2.75;;;24.10;50.90;;;;;;5090851;28;20385;-64
2022/05/16 13:10:06;;;;;;;3.40;2.77;;;24.10;50.80;;;;;;5090054;28;20464;-64
2022/05/16 13:12:48;;;;;;;3.30;2.90;;;24.10;50.90;;;;;;5090943;28;20490;-64
2022/05/16 13:15:39;;;;;;;3.13;2.80;;;24.10;50.90;;;;;;5091353;28;20378;-64
2022/05/16 13:18:12;;;;;;;3.25;2.80;;;24.10;50.80;;;;;;5089751;28;20420;-64
2022/05/16 13:20:43;;;;;;;3.22;2.70;;;24.00;50.70;;;;;;5089457;28;20493;-64
2022/05/16 13:23:09;;;;;;;3.47;2.80;;;24.10;50.80;;;;;;5091508;28;20394;-64
2022/05/16 13:29:21;;;;;;;3.00;2.60;;;24.00;50.70;;;;;;5088583;28;20378;-64
2022/05/16 13:31:07;;;;;;;2.97;2.67;;;24.00;50.80;;;;;;5089854;28;20398;-64
2022/05/16 13:33:37;;;;;;;3.28;2.60;;;24.00;50.70;;;;;;5091504;28;20922;-64
2022/05/16 13:36:21;;;;;;;2.78;2.55;;;24.00;50.70;;;;;;5091919;28;20389;-64
2022/05/16 13:38:58;;;;;;;2.80;2.60;;;24.00;50.80;;;;;;5090261;28;20401;-64
2022/05/16 13:41:27;;;;;;;2.83;2.53;;;24.00;50.70;;;;;;5089725;28;20897;-64